Aeroporto :
LOGIN :

Iscrizione | Disclaimer

   EN    FR    IT 

 










Sommario :    VFR   VFR Marginale   IFR   IFR Intensivo   IFR Molto Intensivo
Visibilità : 
Base nubi : 
>= 8 km
>= 3000ft
5 / 8 km
1000 / 3000 ft
1500m / 5 km
500 / 1000 ft
800 / 1500m
200 / 500 ft
< 800m
< 200 ft
Simboli :   Temporali  Nebbia  Neve Forte  Precipitazioni Forti  Vento > 20 kt
SIGMETs :   Varie  Temporali  Ghiacco  Turbolenza  Onda orograficha  Ceneri Vulcaniche






- Altitudine del aeroporto : 90 ft
- Codice IATA : NTE


LFRS - Nantes

ULTIMO METAR :
  • 131400Z AUTO 27005KT 190V330 9999 FEW020/// BKN026/// BKN033/// ///CB 22/20 Q1012 TEMPO VRB15G25KT 2000 TSRA BKN010 BKN020CB

METARs OBSOLETI :
  • 131330Z AUTO 27008KT 9999 BKN022/// BKN028/// BKN110/// ///CB 24/18 Q1012 TEMPO VRB15G25KT 2000 TSRA BKN010 BKN020CB
  • 131300Z AUTO 27007KT 210V310 9999 VCTS FEW023/// BKN110/// BKN140/// ///CB 24/18 Q1012 TEMPO VRB15G25KT 2000 TSRA BKN010 BKN020CB
  • 131230Z AUTO 26007KT 230V290 9999 BKN017 OVC100 24/19 Q1012 TEMPO VRB15G25KT 2000 TSRA BKN010 BKN020CB
  • 131200Z AUTO 25004KT 210V310 9999 SCT016/// BKN022/// BKN120/// ///TCU 23/19 Q1012 TEMPO VRB15G25KT 2000 TSRA BKN010 BKN020CB
  • 131130Z AUTO 23003KT 180V280 9999 FEW015 OVC110 23/19 Q1012 TEMPO VRB15G25KT 2000 TSRA BKN010 BKN020CB

TAF TAF LFRS
Valido dal 13 a 12 ore il 14 a 18 ore UTC


131100Z 1312/1418 VRB05KT 9999 BKN020
BECMG 1313/1315 27010KT
TEMPO 1312/1318 4000 SHRA SCT025 BKN040CB
PROB40
TEMPO 1312/1318 VRB15G25KT 2000 TSRA BKN010 BKN020CB
TEMPO 1318/1403 4500 SHRA BKN012 BKN020CB
ATIS : +33 2 40 05 12 74



MetMap, La meteo Aeronautica in un colpo d'occhio ! - Copyright ORBIFLY Dicembre 2007 - Disclaimer

ORBIFLY MET'MAP TEAM :

Programmazione e sviluppo : Alexandra Zaïnal
Concezione : Baudouin d'Aumeries
Aiuto per la programmazione : Marc-Olivier Méhu
Supporto tecnico e logistico : Manuel Goepfert
Aiuto per la traduzione : Arnaldo La Scala

Contatto : metmap@orbifly.com




FONTI E CREDITI :

   NOAA